sensor_id;sensor_type;location;lat;lon;timestamp;temperature;humidity
64689;DHT22;62504;46.070;14.492;2022-09-09T00:04:03;19.60;99.90
64689;DHT22;62504;46.070;14.492;2022-09-09T00:09:24;19.50;99.90
64689;DHT22;62504;46.070;14.492;2022-09-09T00:12:15;19.60;99.90
64689;DHT22;62504;46.070;14.492;2022-09-09T00:14:59;19.60;99.90
64689;DHT22;62504;46.070;14.492;2022-09-09T00:17:43;19.60;99.90
64689;DHT22;62504;46.070;14.492;2022-09-09T00:23:29;19.50;99.90
64689;DHT22;62504;46.070;14.492;2022-09-09T00:31:30;19.40;99.90
64689;DHT22;62504;46.070;14.492;2022-09-09T00:34:13;19.40;99.90
64689;DHT22;62504;46.070;14.492;2022-09-09T00:36:40;19.50;99.90
64689;DHT22;62504;46.070;14.492;2022-09-09T00:39:26;19.50;99.90
64689;DHT22;62504;46.070;14.492;2022-09-09T00:42:16;19.50;99.90
64689;DHT22;62504;46.070;14.492;2022-09-09T00:44:53;19.50;99.90
64689;DHT22;62504;46.070;14.492;2022-09-09T00:47:33;19.40;99.90
64689;DHT22;62504;46.070;14.492;2022-09-09T00:53:18;19.40;99.90
64689;DHT22;62504;46.070;14.492;2022-09-09T00:56:09;19.40;99.90
64689;DHT22;62504;46.070;14.492;2022-09-09T00:58:37;19.30;99.90
64689;DHT22;62504;46.070;14.492;2022-09-09T01:01:10;19.40;99.90
64689;DHT22;62504;46.070;14.492;2022-09-09T01:03:40;19.30;99.90
64689;DHT22;62504;46.070;14.492;2022-09-09T01:06:30;19.20;99.90
64689;DHT22;62504;46.070;14.492;2022-09-09T01:12:44;18.80;99.90
64689;DHT22;62504;46.070;14.492;2022-09-09T01:14:54;18.90;99.90
64689;DHT22;62504;46.070;14.492;2022-09-09T01:26:23;19.00;99.90
64689;DHT22;62504;46.070;14.492;2022-09-09T01:28:51;18.80;99.90
64689;DHT22;62504;46.070;14.492;2022-09-09T01:31:51;18.60;99.90
64689;DHT22;62504;46.070;14.492;2022-09-09T01:34:17;18.60;99.90
64689;DHT22;62504;46.070;14.492;2022-09-09T01:39:17;18.80;99.90
64689;DHT22;62504;46.070;14.492;2022-09-09T01:41:43;18.60;99.90
64689;DHT22;62504;46.070;14.492;2022-09-09T01:44:08;18.80;99.90
64689;DHT22;62504;46.070;14.492;2022-09-09T01:46:35;18.70;99.90
64689;DHT22;62504;46.070;14.492;2022-09-09T01:49:02;18.90;99.90
64689;DHT22;62504;46.070;14.492;2022-09-09T01:51:29;19.00;99.90
64689;DHT22;62504;46.070;14.492;2022-09-09T01:53:55;19.10;99.90
64689;DHT22;62504;46.070;14.492;2022-09-09T01:59:45;19.30;99.90
64689;DHT22;62504;46.070;14.492;2022-09-09T02:08:05;19.30;99.90
64689;DHT22;62504;46.070;14.492;2022-09-09T02:10:55;19.30;99.90
64689;DHT22;62504;46.070;14.492;2022-09-09T02:13:22;19.10;99.90
64689;DHT22;62504;46.070;14.492;2022-09-09T02:15:55;19.20;99.90
64689;DHT22;62504;46.070;14.492;2022-09-09T02:21:07;19.30;99.90
64689;DHT22;62504;46.070;14.492;2022-09-09T02:23:36;19.40;99.90
64689;DHT22;62504;46.070;14.492;2022-09-09T02:26:06;19.40;99.90
64689;DHT22;62504;46.070;14.492;2022-09-09T02:28:34;19.40;99.90
64689;DHT22;62504;46.070;14.492;2022-09-09T02:31:02;19.40;99.90
64689;DHT22;62504;46.070;14.492;2022-09-09T02:33:33;19.40;99.90
64689;DHT22;62504;46.070;14.492;2022-09-09T02:36:01;19.40;99.90
64689;DHT22;62504;46.070;14.492;2022-09-09T02:38:34;19.40;99.90
64689;DHT22;62504;46.070;14.492;2022-09-09T02:41:00;19.40;99.90
64689;DHT22;62504;46.070;14.492;2022-09-09T02:43:32;19.40;99.90
64689;DHT22;62504;46.070;14.492;2022-09-09T02:46:08;19.50;99.90
64689;DHT22;62504;46.070;14.492;2022-09-09T02:49:04;19.60;99.90
64689;DHT22;62504;46.070;14.492;2022-09-09T02:51:57;19.60;99.90
64689;DHT22;62504;46.070;14.492;2022-09-09T02:54:31;19.30;99.90
64689;DHT22;62504;46.070;14.492;2022-09-09T02:57:19;18.80;99.90
64689;DHT22;62504;46.070;14.492;2022-09-09T02:59:47;18.70;99.90
64689;DHT22;62504;46.070;14.492;2022-09-09T03:02:14;18.80;99.90
64689;DHT22;62504;46.070;14.492;2022-09-09T03:04:39;18.80;99.90
64689;DHT22;62504;46.070;14.492;2022-09-09T03:07:06;18.90;99.90
64689;DHT22;62504;46.070;14.492;2022-09-09T03:09:31;19.20;99.90
64689;DHT22;62504;46.070;14.492;2022-09-09T03:11:58;18.90;99.90
64689;DHT22;62504;46.070;14.492;2022-09-09T03:14:24;19.10;99.90
64689;DHT22;62504;46.070;14.492;2022-09-09T03:16:53;19.20;99.90
64689;DHT22;62504;46.070;14.492;2022-09-09T03:19:20;19.20;99.90
64689;DHT22;62504;46.070;14.492;2022-09-09T03:21:46;19.30;99.90
64689;DHT22;62504;46.070;14.492;2022-09-09T03:24:13;19.30;99.90
64689;DHT22;62504;46.070;14.492;2022-09-09T03:26:40;19.20;99.90
64689;DHT22;62504;46.070;14.492;2022-09-09T03:29:06;19.20;99.90
64689;DHT22;62504;46.070;14.492;2022-09-09T03:31:35;19.20;99.90
64689;DHT22;62504;46.070;14.492;2022-09-09T03:34:01;19.20;99.90
64689;DHT22;62504;46.070;14.492;2022-09-09T03:36:30;19.20;99.90
64689;DHT22;62504;46.070;14.492;2022-09-09T03:38:56;19.20;99.90
64689;DHT22;62504;46.070;14.492;2022-09-09T03:41:23;19.30;99.90
64689;DHT22;62504;46.070;14.492;2022-09-09T03:43:53;19.30;99.90
64689;DHT22;62504;46.070;14.492;2022-09-09T03:46:20;19.30;99.90
64689;DHT22;62504;46.070;14.492;2022-09-09T03:48:46;19.40;99.90
64689;DHT22;62504;46.070;14.492;2022-09-09T03:51:12;19.40;99.90
64689;DHT22;62504;46.070;14.492;2022-09-09T03:53:38;19.30;99.90
64689;DHT22;62504;46.070;14.492;2022-09-09T03:56:05;19.30;99.90
64689;DHT22;62504;46.070;14.492;2022-09-09T03:58:33;19.20;99.90
64689;DHT22;62504;46.070;14.492;2022-09-09T04:01:02;19.30;99.90
64689;DHT22;62504;46.070;14.492;2022-09-09T04:03:28;19.30;99.90
64689;DHT22;62504;46.070;14.492;2022-09-09T04:05:56;19.20;99.90
64689;DHT22;62504;46.070;14.492;2022-09-09T04:08:23;19.20;99.90
64689;DHT22;62504;46.070;14.492;2022-09-09T04:10:51;19.20;99.90
64689;DHT22;62504;46.070;14.492;2022-09-09T04:13:18;19.10;99.90
64689;DHT22;62504;46.070;14.492;2022-09-09T04:15:49;19.20;99.90
64689;DHT22;62504;46.070;14.492;2022-09-09T04:18:15;19.10;99.90
64689;DHT22;62504;46.070;14.492;2022-09-09T04:20:41;19.10;99.90
64689;DHT22;62504;46.070;14.492;2022-09-09T04:23:08;19.10;99.90
64689;DHT22;62504;46.070;14.492;2022-09-09T04:25:34;19.10;99.90
64689;DHT22;62504;46.070;14.492;2022-09-09T04:28:00;19.00;99.90
64689;DHT22;62504;46.070;14.492;2022-09-09T04:30:25;19.10;99.90
64689;DHT22;62504;46.070;14.492;2022-09-09T04:32:52;19.20;99.90
64689;DHT22;62504;46.070;14.492;2022-09-09T04:35:18;18.90;99.90
64689;DHT22;62504;46.070;14.492;2022-09-09T04:37:45;18.70;99.90
64689;DHT22;62504;46.070;14.492;2022-09-09T04:40:11;18.70;99.90
64689;DHT22;62504;46.070;14.492;2022-09-09T04:42:38;18.60;99.90
64689;DHT22;62504;46.070;14.492;2022-09-09T04:45:07;18.50;99.90
64689;DHT22;62504;46.070;14.492;2022-09-09T04:47:33;18.50;99.90
64689;DHT22;62504;46.070;14.492;2022-09-09T04:50:00;18.60;99.90
64689;DHT22;62504;46.070;14.492;2022-09-09T04:52:26;18.60;99.90
64689;DHT22;62504;46.070;14.492;2022-09-09T04:54:51;18.80;99.90
64689;DHT22;62504;46.070;14.492;2022-09-09T04:57:19;18.80;99.90
64689;DHT22;62504;46.070;14.492;2022-09-09T04:59:45;18.80;99.90
64689;DHT22;62504;46.070;14.492;2022-09-09T05:02:11;18.80;99.90
64689;DHT22;62504;46.070;14.492;2022-09-09T05:04:37;18.70;99.90
64689;DHT22;62504;46.070;14.492;2022-09-09T05:07:02;18.80;99.90
64689;DHT22;62504;46.070;14.492;2022-09-09T05:09:28;18.90;99.90
64689;DHT22;62504;46.070;14.492;2022-09-09T05:11:54;18.90;99.90
64689;DHT22;62504;46.070;14.492;2022-09-09T05:14:20;19.00;99.90
64689;DHT22;62504;46.070;14.492;2022-09-09T05:16:45;19.00;99.90
64689;DHT22;62504;46.070;14.492;2022-09-09T05:19:12;19.20;99.90
64689;DHT22;62504;46.070;14.492;2022-09-09T05:21:38;19.30;99.90
64689;DHT22;62504;46.070;14.492;2022-09-09T05:24:04;19.00;99.90
64689;DHT22;62504;46.070;14.492;2022-09-09T05:26:29;19.00;99.90
64689;DHT22;62504;46.070;14.492;2022-09-09T05:28:55;19.10;99.90
64689;DHT22;62504;46.070;14.492;2022-09-09T05:31:22;19.00;99.90
64689;DHT22;62504;46.070;14.492;2022-09-09T05:33:49;19.00;99.90
64689;DHT22;62504;46.070;14.492;2022-09-09T05:36:17;19.00;99.90
64689;DHT22;62504;46.070;14.492;2022-09-09T05:38:44;19.00;99.90
64689;DHT22;62504;46.070;14.492;2022-09-09T05:41:10;19.00;99.90
64689;DHT22;62504;46.070;14.492;2022-09-09T05:43:37;19.00;99.90
64689;DHT22;62504;46.070;14.492;2022-09-09T05:46:11;18.90;99.90
64689;DHT22;62504;46.070;14.492;2022-09-09T05:48:40;19.00;99.90
64689;DHT22;62504;46.070;14.492;2022-09-09T05:51:11;19.00;99.90
64689;DHT22;62504;46.070;14.492;2022-09-09T05:53:38;18.80;99.90
64689;DHT22;62504;46.070;14.492;2022-09-09T05:56:06;18.80;99.90
64689;DHT22;62504;46.070;14.492;2022-09-09T05:58:33;18.70;99.90
64689;DHT22;62504;46.070;14.492;2022-09-09T06:01:06;18.50;99.90
64689;DHT22;62504;46.070;14.492;2022-09-09T06:03:34;18.70;99.90
64689;DHT22;62504;46.070;14.492;2022-09-09T06:06:02;18.70;99.90
64689;DHT22;62504;46.070;14.492;2022-09-09T06:08:31;18.70;99.90
64689;DHT22;62504;46.070;14.492;2022-09-09T06:11:11;18.70;99.90
64689;DHT22;62504;46.070;14.492;2022-09-09T06:13:38;18.70;99.90
64689;DHT22;62504;46.070;14.492;2022-09-09T06:16:08;18.80;99.90
64689;DHT22;62504;46.070;14.492;2022-09-09T06:18:34;18.70;99.90
64689;DHT22;62504;46.070;14.492;2022-09-09T06:21:01;18.50;99.90
64689;DHT22;62504;46.070;14.492;2022-09-09T06:23:29;18.50;99.90
64689;DHT22;62504;46.070;14.492;2022-09-09T06:26:22;18.50;99.90
64689;DHT22;62504;46.070;14.492;2022-09-09T06:28:50;18.60;99.90
64689;DHT22;62504;46.070;14.492;2022-09-09T06:31:22;18.70;99.90
64689;DHT22;62504;46.070;14.492;2022-09-09T06:33:50;18.90;99.90
64689;DHT22;62504;46.070;14.492;2022-09-09T06:36:41;18.80;99.90
64689;DHT22;62504;46.070;14.492;2022-09-09T06:39:06;18.80;99.90
64689;DHT22;62504;46.070;14.492;2022-09-09T06:41:33;18.80;99.90
64689;DHT22;62504;46.070;14.492;2022-09-09T06:43:59;18.80;99.90
64689;DHT22;62504;46.070;14.492;2022-09-09T06:46:29;18.90;99.90
64689;DHT22;62504;46.070;14.492;2022-09-09T06:48:57;19.00;99.90
64689;DHT22;62504;46.070;14.492;2022-09-09T06:51:30;18.70;99.90
64689;DHT22;62504;46.070;14.492;2022-09-09T06:53:59;18.90;99.90
64689;DHT22;62504;46.070;14.492;2022-09-09T06:56:45;18.80;99.90
64689;DHT22;62504;46.070;14.492;2022-09-09T06:59:11;18.80;99.90
64689;DHT22;62504;46.070;14.492;2022-09-09T07:01:42;18.60;99.90
64689;DHT22;62504;46.070;14.492;2022-09-09T07:04:09;18.80;99.90
64689;DHT22;62504;46.070;14.492;2022-09-09T07:06:38;19.00;99.90
64689;DHT22;62504;46.070;14.492;2022-09-09T07:09:06;19.10;99.90
64689;DHT22;62504;46.070;14.492;2022-09-09T07:11:38;19.40;99.90
64689;DHT22;62504;46.070;14.492;2022-09-09T07:14:04;19.40;99.90
64689;DHT22;62504;46.070;14.492;2022-09-09T07:16:30;19.50;99.90
64689;DHT22;62504;46.070;14.492;2022-09-09T07:18:57;19.30;99.90
64689;DHT22;62504;46.070;14.492;2022-09-09T07:21:24;19.20;99.90
64689;DHT22;62504;46.070;14.492;2022-09-09T07:23:52;19.40;99.90
64689;DHT22;62504;46.070;14.492;2022-09-09T07:26:20;19.40;99.90
64689;DHT22;62504;46.070;14.492;2022-09-09T07:28:46;19.50;99.90
64689;DHT22;62504;46.070;14.492;2022-09-09T07:31:21;19.60;99.90
64689;DHT22;62504;46.070;14.492;2022-09-09T07:33:48;19.50;99.90
64689;DHT22;62504;46.070;14.492;2022-09-09T07:36:20;19.50;99.90
64689;DHT22;62504;46.070;14.492;2022-09-09T07:38:57;19.40;99.90
64689;DHT22;62504;46.070;14.492;2022-09-09T07:41:43;19.60;99.90
64689;DHT22;62504;46.070;14.492;2022-09-09T07:44:12;19.60;99.90
64689;DHT22;62504;46.070;14.492;2022-09-09T07:46:38;19.50;99.90
64689;DHT22;62504;46.070;14.492;2022-09-09T07:49:08;19.40;99.90
64689;DHT22;62504;46.070;14.492;2022-09-09T07:51:36;19.50;99.90
64689;DHT22;62504;46.070;14.492;2022-09-09T07:54:05;19.60;99.90
64689;DHT22;62504;46.070;14.492;2022-09-09T07:56:32;19.60;99.90
64689;DHT22;62504;46.070;14.492;2022-09-09T07:58:58;19.60;99.90
64689;DHT22;62504;46.070;14.492;2022-09-09T08:01:33;19.70;99.90
64689;DHT22;62504;46.070;14.492;2022-09-09T08:04:04;19.60;99.90
64689;DHT22;62504;46.070;14.492;2022-09-09T08:06:38;19.70;99.90
64689;DHT22;62504;46.070;14.492;2022-09-09T08:09:05;19.90;99.90
64689;DHT22;62504;46.070;14.492;2022-09-09T08:11:31;19.70;99.90
64689;DHT22;62504;46.070;14.492;2022-09-09T08:13:58;19.80;99.90
64689;DHT22;62504;46.070;14.492;2022-09-09T08:16:26;19.80;99.90
64689;DHT22;62504;46.070;14.492;2022-09-09T08:18:53;19.90;99.90
64689;DHT22;62504;46.070;14.492;2022-09-09T08:21:28;19.80;99.90
64689;DHT22;62504;46.070;14.492;2022-09-09T08:23:56;19.90;99.90
64689;DHT22;62504;46.070;14.492;2022-09-09T08:26:24;19.90;99.90
64689;DHT22;62504;46.070;14.492;2022-09-09T08:28:51;20.10;99.90
64689;DHT22;62504;46.070;14.492;2022-09-09T08:31:26;20.10;99.90
64689;DHT22;62504;46.070;14.492;2022-09-09T08:33:53;20.00;99.90
64689;DHT22;62504;46.070;14.492;2022-09-09T08:36:22;19.90;99.90
64689;DHT22;62504;46.070;14.492;2022-09-09T08:38:52;20.00;99.90
64689;DHT22;62504;46.070;14.492;2022-09-09T08:49:39;20.00;99.90
64689;DHT22;62504;46.070;14.492;2022-09-09T08:52:23;20.10;99.90
64689;DHT22;62504;46.070;14.492;2022-09-09T08:54:51;19.90;99.90
64689;DHT22;62504;46.070;14.492;2022-09-09T08:57:24;20.00;99.90
64689;DHT22;62504;46.070;14.492;2022-09-09T08:59:52;19.80;99.90
64689;DHT22;62504;46.070;14.492;2022-09-09T09:13:19;20.00;99.90
64689;DHT22;62504;46.070;14.492;2022-09-09T09:15:50;20.10;99.90
64689;DHT22;62504;46.070;14.492;2022-09-09T09:18:17;20.10;99.90
64689;DHT22;62504;46.070;14.492;2022-09-09T09:20:58;20.10;99.90
64689;DHT22;62504;46.070;14.492;2022-09-09T09:23:37;20.10;99.90
64689;DHT22;62504;46.070;14.492;2022-09-09T09:26:07;20.10;99.90
64689;DHT22;62504;46.070;14.492;2022-09-09T09:28:35;20.30;99.90
64689;DHT22;62504;46.070;14.492;2022-09-09T09:31:10;20.40;99.90
64689;DHT22;62504;46.070;14.492;2022-09-09T09:33:53;20.60;99.90
64689;DHT22;62504;46.070;14.492;2022-09-09T09:36:19;20.50;99.90
64689;DHT22;62504;46.070;14.492;2022-09-09T09:38:59;20.50;99.90
64689;DHT22;62504;46.070;14.492;2022-09-09T09:41:36;20.50;99.90
64689;DHT22;62504;46.070;14.492;2022-09-09T09:44:05;20.60;99.90
64689;DHT22;62504;46.070;14.492;2022-09-09T09:46:31;20.50;99.90
64689;DHT22;62504;46.070;14.492;2022-09-09T09:49:03;20.40;99.90
64689;DHT22;62504;46.070;14.492;2022-09-09T09:51:31;20.40;99.90
64689;DHT22;62504;46.070;14.492;2022-09-09T09:54:18;20.30;99.90
64689;DHT22;62504;46.070;14.492;2022-09-09T09:56:48;20.30;99.90
64689;DHT22;62504;46.070;14.492;2022-09-09T10:02:05;20.50;99.90
64689;DHT22;62504;46.070;14.492;2022-09-09T10:04:31;20.50;99.90
64689;DHT22;62504;46.070;14.492;2022-09-09T10:06:58;20.50;99.90
64689;DHT22;62504;46.070;14.492;2022-09-09T10:09:35;20.50;99.90
64689;DHT22;62504;46.070;14.492;2022-09-09T10:20:49;20.50;99.90
64689;DHT22;62504;46.070;14.492;2022-09-09T10:31:53;20.50;99.90
64689;DHT22;62504;46.070;14.492;2022-09-09T10:36:49;20.80;99.90
64689;DHT22;62504;46.070;14.492;2022-09-09T10:39:37;20.90;99.90
64689;DHT22;62504;46.070;14.492;2022-09-09T10:42:09;21.00;99.90
64689;DHT22;62504;46.070;14.492;2022-09-09T10:55:53;20.40;99.90
64689;DHT22;62504;46.070;14.492;2022-09-09T10:58:30;20.30;99.90
64689;DHT22;62504;46.070;14.492;2022-09-09T11:01:15;20.10;99.90
64689;DHT22;62504;46.070;14.492;2022-09-09T11:03:45;20.20;99.90
64689;DHT22;62504;46.070;14.492;2022-09-09T11:06:19;20.10;99.90
64689;DHT22;62504;46.070;14.492;2022-09-09T11:08:46;19.90;99.90
64689;DHT22;62504;46.070;14.492;2022-09-09T11:11:34;19.90;99.90
64689;DHT22;62504;46.070;14.492;2022-09-09T11:14:29;19.90;99.90
64689;DHT22;62504;46.070;14.492;2022-09-09T11:17:03;19.70;99.90
64689;DHT22;62504;46.070;14.492;2022-09-09T11:19:31;19.50;99.90
64689;DHT22;62504;46.070;14.492;2022-09-09T11:22:08;19.60;99.90
64689;DHT22;62504;46.070;14.492;2022-09-09T11:24:45;19.40;99.90
64689;DHT22;62504;46.070;14.492;2022-09-09T11:27:26;19.30;99.90
64689;DHT22;62504;46.070;14.492;2022-09-09T11:41:01;19.00;99.90
64689;DHT22;62504;46.070;14.492;2022-09-09T11:43:31;19.00;99.90
64689;DHT22;62504;46.070;14.492;2022-09-09T11:46:00;19.00;99.90
64689;DHT22;62504;46.070;14.492;2022-09-09T11:48:38;19.10;99.90
64689;DHT22;62504;46.070;14.492;2022-09-09T11:51:12;18.90;99.90
64689;DHT22;62504;46.070;14.492;2022-09-09T11:53:59;18.80;99.90
64689;DHT22;62504;46.070;14.492;2022-09-09T11:56:30;18.90;99.90
64689;DHT22;62504;46.070;14.492;2022-09-09T11:59:05;18.80;99.90
64689;DHT22;62504;46.070;14.492;2022-09-09T12:02:00;18.80;99.90
64689;DHT22;62504;46.070;14.492;2022-09-09T12:04:34;18.70;99.90
64689;DHT22;62504;46.070;14.492;2022-09-09T12:07:31;18.90;99.90
64689;DHT22;62504;46.070;14.492;2022-09-09T12:10:17;18.90;99.90
64689;DHT22;62504;46.070;14.492;2022-09-09T12:12:44;19.00;99.90
64689;DHT22;62504;46.070;14.492;2022-09-09T12:17:47;18.80;99.90
64689;DHT22;62504;46.070;14.492;2022-09-09T12:20:31;18.90;99.90
64689;DHT22;62504;46.070;14.492;2022-09-09T12:23:30;18.90;99.90
64689;DHT22;62504;46.070;14.492;2022-09-09T12:33:45;18.80;99.90
64689;DHT22;62504;46.070;14.492;2022-09-09T12:36:27;18.80;99.90
64689;DHT22;62504;46.070;14.492;2022-09-09T12:38:55;19.10;99.90
64689;DHT22;62504;46.070;14.492;2022-09-09T12:41:27;19.40;99.90
64689;DHT22;62504;46.070;14.492;2022-09-09T12:44:08;19.60;99.90
64689;DHT22;62504;46.070;14.492;2022-09-09T12:46:45;19.60;99.90
64689;DHT22;62504;46.070;14.492;2022-09-09T12:49:33;19.60;99.90
64689;DHT22;62504;46.070;14.492;2022-09-09T12:52:14;19.90;99.90
64689;DHT22;62504;46.070;14.492;2022-09-09T12:54:45;19.90;99.90
64689;DHT22;62504;46.070;14.492;2022-09-09T12:57:13;19.80;99.90
64689;DHT22;62504;46.070;14.492;2022-09-09T12:59:41;19.70;99.90
64689;DHT22;62504;46.070;14.492;2022-09-09T13:02:22;19.90;99.90
64689;DHT22;62504;46.070;14.492;2022-09-09T13:04:48;19.70;99.90
64689;DHT22;62504;46.070;14.492;2022-09-09T13:07:16;19.90;99.90
64689;DHT22;62504;46.070;14.492;2022-09-09T13:09:42;19.90;99.90
64689;DHT22;62504;46.070;14.492;2022-09-09T13:12:20;19.70;99.90
64689;DHT22;62504;46.070;14.492;2022-09-09T13:14:49;19.70;99.90
64689;DHT22;62504;46.070;14.492;2022-09-09T13:17:24;19.60;99.90
64689;DHT22;62504;46.070;14.492;2022-09-09T13:19:51;19.70;99.90
64689;DHT22;62504;46.070;14.492;2022-09-09T13:22:23;19.80;99.90
64689;DHT22;62504;46.070;14.492;2022-09-09T13:25:17;19.80;99.90
64689;DHT22;62504;46.070;14.492;2022-09-09T13:28:01;20.00;99.90
64689;DHT22;62504;46.070;14.492;2022-09-09T13:35:57;20.50;99.90
64689;DHT22;62504;46.070;14.492;2022-09-09T13:38:24;20.50;99.90
64689;DHT22;62504;46.070;14.492;2022-09-09T13:40:55;20.70;99.90
64689;DHT22;62504;46.070;14.492;2022-09-09T13:43:24;20.50;99.90
64689;DHT22;62504;46.070;14.492;2022-09-09T13:45:58;20.50;99.90
64689;DHT22;62504;46.070;14.492;2022-09-09T13:48:24;20.50;99.90
64689;DHT22;62504;46.070;14.492;2022-09-09T13:50:59;20.50;99.90
64689;DHT22;62504;46.070;14.492;2022-09-09T13:53:25;20.60;99.90
64689;DHT22;62504;46.070;14.492;2022-09-09T13:55:51;20.50;99.90
64689;DHT22;62504;46.070;14.492;2022-09-09T13:58:18;20.50;99.90
64689;DHT22;62504;46.070;14.492;2022-09-09T14:00:44;20.40;99.90
64689;DHT22;62504;46.070;14.492;2022-09-09T14:03:10;20.40;99.90
64689;DHT22;62504;46.070;14.492;2022-09-09T14:05:36;20.30;99.90
64689;DHT22;62504;46.070;14.492;2022-09-09T14:08:07;20.30;99.90
64689;DHT22;62504;46.070;14.492;2022-09-09T14:10:33;20.20;99.90
64689;DHT22;62504;46.070;14.492;2022-09-09T14:13:02;20.10;99.90
64689;DHT22;62504;46.070;14.492;2022-09-09T14:15:28;20.10;99.90
64689;DHT22;62504;46.070;14.492;2022-09-09T14:17:54;20.10;99.90
64689;DHT22;62504;46.070;14.492;2022-09-09T14:20:20;20.00;99.90
64689;DHT22;62504;46.070;14.492;2022-09-09T14:22:46;20.00;99.90
64689;DHT22;62504;46.070;14.492;2022-09-09T14:25:11;20.10;99.90
64689;DHT22;62504;46.070;14.492;2022-09-09T14:27:39;20.20;99.90
64689;DHT22;62504;46.070;14.492;2022-09-09T14:30:05;20.40;99.90
64689;DHT22;62504;46.070;14.492;2022-09-09T14:32:31;20.40;99.90
64689;DHT22;62504;46.070;14.492;2022-09-09T14:34:57;20.50;99.90
64689;DHT22;62504;46.070;14.492;2022-09-09T14:37:22;20.50;99.90
64689;DHT22;62504;46.070;14.492;2022-09-09T14:39:49;20.50;99.90
64689;DHT22;62504;46.070;14.492;2022-09-09T14:42:16;20.50;99.90
64689;DHT22;62504;46.070;14.492;2022-09-09T14:44:42;20.30;99.90
64689;DHT22;62504;46.070;14.492;2022-09-09T14:47:08;20.30;99.90
64689;DHT22;62504;46.070;14.492;2022-09-09T14:49:34;20.10;99.90
64689;DHT22;62504;46.070;14.492;2022-09-09T14:52:00;20.10;99.90
64689;DHT22;62504;46.070;14.492;2022-09-09T14:54:26;20.30;99.90
64689;DHT22;62504;46.070;14.492;2022-09-09T14:56:52;20.50;99.90
64689;DHT22;62504;46.070;14.492;2022-09-09T14:59:17;20.60;99.90
64689;DHT22;62504;46.070;14.492;2022-09-09T15:01:43;20.70;99.90
64689;DHT22;62504;46.070;14.492;2022-09-09T15:04:11;20.80;99.90
64689;DHT22;62504;46.070;14.492;2022-09-09T15:06:37;20.90;99.90
64689;DHT22;62504;46.070;14.492;2022-09-09T15:09:05;20.80;99.90
64689;DHT22;62504;46.070;14.492;2022-09-09T15:11:34;20.80;99.90
64689;DHT22;62504;46.070;14.492;2022-09-09T15:14:03;20.70;99.90
64689;DHT22;62504;46.070;14.492;2022-09-09T15:16:29;20.70;99.90
64689;DHT22;62504;46.070;14.492;2022-09-09T15:18:58;20.70;99.90
64689;DHT22;62504;46.070;14.492;2022-09-09T15:21:26;20.60;99.90
64689;DHT22;62504;46.070;14.492;2022-09-09T15:23:52;20.50;99.90
64689;DHT22;62504;46.070;14.492;2022-09-09T15:26:18;20.50;99.90
64689;DHT22;62504;46.070;14.492;2022-09-09T15:28:45;20.40;99.90
64689;DHT22;62504;46.070;14.492;2022-09-09T15:31:23;20.30;99.90
64689;DHT22;62504;46.070;14.492;2022-09-09T15:33:51;20.30;99.90
64689;DHT22;62504;46.070;14.492;2022-09-09T15:36:23;20.40;99.90
64689;DHT22;62504;46.070;14.492;2022-09-09T15:38:49;20.40;99.90
64689;DHT22;62504;46.070;14.492;2022-09-09T15:41:16;20.30;99.90
64689;DHT22;62504;46.070;14.492;2022-09-09T15:43:46;20.00;99.90
64689;DHT22;62504;46.070;14.492;2022-09-09T15:49:02;20.10;99.90
64689;DHT22;62504;46.070;14.492;2022-09-09T15:51:29;20.10;99.90
64689;DHT22;62504;46.070;14.492;2022-09-09T15:53:56;20.10;99.90
64689;DHT22;62504;46.070;14.492;2022-09-09T15:56:24;20.10;99.90
64689;DHT22;62504;46.070;14.492;2022-09-09T15:58:50;20.10;99.90
64689;DHT22;62504;46.070;14.492;2022-09-09T16:01:17;20.10;99.90
64689;DHT22;62504;46.070;14.492;2022-09-09T16:03:45;20.20;99.90
64689;DHT22;62504;46.070;14.492;2022-09-09T16:06:19;20.20;99.90
64689;DHT22;62504;46.070;14.492;2022-09-09T16:08:48;20.20;99.90
64689;DHT22;62504;46.070;14.492;2022-09-09T16:11:23;20.10;99.90
64689;DHT22;62504;46.070;14.492;2022-09-09T16:13:51;20.00;99.90
64689;DHT22;62504;46.070;14.492;2022-09-09T16:16:19;20.10;99.90
64689;DHT22;62504;46.070;14.492;2022-09-09T16:18:51;20.00;99.90
64689;DHT22;62504;46.070;14.492;2022-09-09T16:21:24;20.00;99.90
64689;DHT22;62504;46.070;14.492;2022-09-09T16:23:52;20.10;99.90
64689;DHT22;62504;46.070;14.492;2022-09-09T16:26:19;20.10;99.90
64689;DHT22;62504;46.070;14.492;2022-09-09T16:28:48;20.00;99.90
64689;DHT22;62504;46.070;14.492;2022-09-09T16:31:21;20.00;99.90
64689;DHT22;62504;46.070;14.492;2022-09-09T16:33:47;20.00;99.90
64689;DHT22;62504;46.070;14.492;2022-09-09T16:36:15;20.10;99.90
64689;DHT22;62504;46.070;14.492;2022-09-09T16:38:41;20.00;99.90
64689;DHT22;62504;46.070;14.492;2022-09-09T16:41:09;19.90;99.90
64689;DHT22;62504;46.070;14.492;2022-09-09T16:43:35;19.90;99.90
64689;DHT22;62504;46.070;14.492;2022-09-09T16:46:23;19.90;99.90
64689;DHT22;62504;46.070;14.492;2022-09-09T16:48:49;19.80;99.90
64689;DHT22;62504;46.070;14.492;2022-09-09T16:53:48;19.80;99.90
64689;DHT22;62504;46.070;14.492;2022-09-09T16:56:19;19.80;99.90
64689;DHT22;62504;46.070;14.492;2022-09-09T16:58:50;19.80;99.90
64689;DHT22;62504;46.070;14.492;2022-09-09T17:01:16;19.70;99.90
64689;DHT22;62504;46.070;14.492;2022-09-09T17:03:42;19.60;99.90
64689;DHT22;62504;46.070;14.492;2022-09-09T17:06:11;19.50;99.90
64689;DHT22;62504;46.070;14.492;2022-09-09T17:08:41;19.50;99.90
64689;DHT22;62504;46.070;14.492;2022-09-09T17:11:18;19.50;99.90
64689;DHT22;62504;46.070;14.492;2022-09-09T17:13:45;19.50;99.90
64689;DHT22;62504;46.070;14.492;2022-09-09T17:16:11;19.40;99.90
64689;DHT22;62504;46.070;14.492;2022-09-09T17:18:37;19.30;99.90
64689;DHT22;62504;46.070;14.492;2022-09-09T17:21:08;19.30;99.90
64689;DHT22;62504;46.070;14.492;2022-09-09T17:23:35;19.30;99.90
64689;DHT22;62504;46.070;14.492;2022-09-09T17:26:04;19.40;99.90
64689;DHT22;62504;46.070;14.492;2022-09-09T17:28:31;19.40;99.90
64689;DHT22;62504;46.070;14.492;2022-09-09T17:30:58;19.30;99.90
64689;DHT22;62504;46.070;14.492;2022-09-09T17:33:30;19.10;99.90
64689;DHT22;62504;46.070;14.492;2022-09-09T17:36:00;19.10;99.90
64689;DHT22;62504;46.070;14.492;2022-09-09T17:38:27;19.00;99.90
64689;DHT22;62504;46.070;14.492;2022-09-09T17:43:28;19.00;99.90
64689;DHT22;62504;46.070;14.492;2022-09-09T17:45:54;18.90;99.90
64689;DHT22;62504;46.070;14.492;2022-09-09T17:48:19;18.90;99.90